SCO905P EGPH-EGPN

Flight info

Callsign SCO905P
Flight time 0h 17m
Altitude 11000
Route GRICE
Aircraft AT46/M-SDFGIRY/S

Departure

Time 2026-04-24 01:29
Airport Edinburgh Airport (EGPH)

Arrival

Time 2026-04-24 01:46
Airport Dundee Airport (EGPN)
Time Latitude Longitude Altitude Speed Heading
2026-04-24 01:20 55.94961 -3.36282 109 ft 0 kts 149°
2026-04-24 01:23 55.94960 -3.36282 109 ft 0 kts 149°
2026-04-24 01:23 55.94972 -3.36295 108 ft 2 kts 149°
2026-04-24 01:23 55.94985 -3.36309 107 ft 2 kts 149°
2026-04-24 01:23 55.94998 -3.36323 107 ft 2 kts 149°
2026-04-24 01:24 55.95009 -3.36335 108 ft 0 kts 149°
2026-04-24 01:26 55.95008 -3.36335 108 ft 1 kts 160°
2026-04-24 01:27 55.95003 -3.36333 108 ft 0 kts 180°
2026-04-24 01:27 55.94999 -3.36334 108 ft 1 kts 201°
2026-04-24 01:27 55.94965 -3.36478 107 ft 23 kts 255°
2026-04-24 01:27 55.94917 -3.36852 109 ft 28 kts 277°
2026-04-24 01:28 55.94817 -3.37214 109 ft 35 kts 235°
2026-04-24 01:28 55.94672 -3.37640 109 ft 42 kts 238°
2026-04-24 01:28 55.94619 -3.37984 108 ft 0 kts 326°
2026-04-24 01:28 55.94650 -3.38017 110 ft 20 kts 330°
2026-04-24 01:29 55.94829 -3.37758 112 ft 76 kts 61°
2026-04-24 01:29 55.95249 -3.36592 484 ft 118 kts 57°
2026-04-24 01:29 55.95760 -3.35367 1319 ft 149 kts 45°
2026-04-24 01:29 55.96736 -3.33877 1411 ft 206 kts 37°
2026-04-24 01:30 55.97988 -3.32221 1647 ft 236 kts 36°
2026-04-24 01:30 55.99300 -3.30733 2821 ft 214 kts 32°
2026-04-24 01:30 56.00500 -3.28801 2885 ft 248 kts 46°
2026-04-24 01:30 56.01933 -3.27482 3836 ft 230 kts
2026-04-24 01:31 56.03516 -3.27732 4225 ft 236 kts 343°
2026-04-24 01:31 56.05022 -3.29358 3887 ft 269 kts 320°
2026-04-24 01:31 56.06387 -3.31685 3646 ft 268 kts 311°
2026-04-24 01:31 56.07555 -3.34148 3868 ft 254 kts 308°
2026-04-24 01:32 56.08583 -3.36596 4086 ft 245 kts 303°
2026-04-24 01:32 56.09407 -3.39269 4152 ft 243 kts 291°
2026-04-24 01:32 56.09976 -3.42261 4319 ft 257 kts 285°
2026-04-24 01:32 56.10404 -3.45486 4291 ft 271 kts 280°
2026-04-24 01:33 56.10680 -3.48758 4469 ft 269 kts 276°
2026-04-24 01:33 56.10845 -3.52104 4552 ft 271 kts 273°
2026-04-24 01:33 56.10942 -3.55487 4594 ft 272 kts 271°
2026-04-24 01:33 56.11019 -3.58890 4880 ft 267 kts 271°
2026-04-24 01:34 56.11087 -3.62175 5084 ft 271 kts 273°
2026-04-24 01:34 56.11589 -3.65440 4852 ft 279 kts 297°
2026-04-24 01:34 56.12846 -3.67993 5160 ft 266 kts 320°
2026-04-24 01:34 56.14366 -3.69825 5771 ft 263 kts 328°
2026-04-24 01:35 56.15998 -3.71318 6132 ft 267 kts 335°
2026-04-24 01:35 56.17749 -3.72714 6038 ft 282 kts 336°
2026-04-24 01:35 56.19621 -3.73528 6088 ft 281 kts 359°
2026-04-24 01:35 56.21565 -3.72857 5494 ft 289 kts 18°
2026-04-24 01:36 56.23448 -3.71641 5137 ft 280 kts 19°
2026-04-24 01:36 56.25227 -3.70639 5160 ft 258 kts 16°
2026-04-24 01:36 56.26921 -3.69671 4848 ft 253 kts 19°
2026-04-24 01:36 56.28535 -3.68516 4222 ft 248 kts 24°
2026-04-24 01:37 56.30017 -3.67289 4192 ft 221 kts 25°
2026-04-24 01:37 56.31356 -3.66071 3848 ft 215 kts 27°
2026-04-24 01:37 56.32696 -3.64878 3484 ft 211 kts 26°
2026-04-24 01:37 56.34058 -3.63788 2844 ft 215 kts 22°
2026-04-24 01:38 56.35486 -3.62908 2560 ft 205 kts 18°
2026-04-24 01:38 56.36807 -3.61988 2209 ft 202 kts 25°
2026-04-24 01:38 56.37993 -3.60770 2144 ft 188 kts 32°
2026-04-24 01:38 56.39035 -3.59449 2080 ft 177 kts 38°
2026-04-24 01:39 56.39981 -3.58059 1984 ft 169 kts 42°
2026-04-24 01:39 56.40727 -3.56541 2046 ft 159 kts 53°
2026-04-24 01:39 56.41377 -3.54928 1835 ft 171 kts 56°
2026-04-24 01:39 56.42109 -3.53040 1721 ft 184 kts 53°
2026-04-24 01:40 56.42893 -3.51218 1832 ft 186 kts 52°
2026-04-24 01:40 56.43684 -3.49429 2070 ft 183 kts 51°
2026-04-24 01:40 56.44453 -3.47702 2389 ft 175 kts 50°
2026-04-24 01:40 56.45246 -3.45842 2307 ft 188 kts 55°
2026-04-24 01:41 56.45895 -3.43754 2310 ft 189 kts 70°
2026-04-24 01:41 56.46085 -3.41425 2418 ft 185 kts 93°
2026-04-24 01:41 56.45999 -3.39045 2404 ft 192 kts 95°
2026-04-24 01:41 56.45849 -3.36604 2425 ft 191 kts 96°
2026-04-24 01:42 56.45728 -3.34222 2516 ft 190 kts 94°
2026-04-24 01:42 56.45604 -3.31748 2350 ft 200 kts 94°
2026-04-24 01:42 56.45438 -3.29114 1760 ft 227 kts 99°
2026-04-24 01:42 56.45291 -3.26359 1711 ft 193 kts 92°
2026-04-24 01:43 56.45360 -3.24295 1852 ft 143 kts 82°
2026-04-24 01:43 56.45418 -3.22609 1884 ft 128 kts 90°
2026-04-24 01:43 56.45416 -3.20955 1771 ft 128 kts 92°
2026-04-24 01:43 56.45376 -3.19442 1915 ft 119 kts 93°
2026-04-24 01:44 56.45331 -3.17847 1698 ft 135 kts 90°
2026-04-24 01:44 56.45342 -3.16206 1565 ft 136 kts 89°
2026-04-24 01:44 56.45356 -3.14552 1409 ft 126 kts 88°
2026-04-24 01:44 56.45342 -3.12984 1192 ft 125 kts 93°
2026-04-24 01:45 56.45300 -3.11408 1008 ft 123 kts 92°
2026-04-24 01:45 56.45291 -3.09845 833 ft 121 kts 89°
2026-04-24 01:45 56.45279 -3.08278 554 ft 128 kts 91°
2026-04-24 01:45 56.45264 -3.06691 395 ft 125 kts 91°
2026-04-24 01:46 56.45262 -3.05117 229 ft 126 kts 90°
2026-04-24 01:46 56.45246 -3.03556 82 ft 116 kts 90°
2026-04-24 01:46 56.45240 -3.02299 21 ft 75 kts 90°
2026-04-24 01:46 56.45241 -3.02095 22 ft 11 kts 89°
2026-04-24 01:47 56.45311 -3.01820 23 ft 29 kts 53°
2026-04-24 01:47 56.45356 -3.01571 21 ft 13 kts 12°
2026-04-24 01:47 56.45365 -3.01563 21 ft 0 kts 43°